Tabellarische Übersicht vom Samstag, den 15.12.2018

Oder anderes Datum wählen:






max 1,2°C 73,0% -3,6°C 1025,8hPa 1,0°C 0,0km/h (0Bft) 0,0km/h 0° (N) ∑0,0l/m² 5,000klx ∑0,0min
min -0,4°C 63,0% -5,1°C 1018,1hPa 0,0°C 0,0km/h (0Bft) 0,0km/h 0° (N) ∑0,0l/m² 0,000klx ∑0,0min
Ø 0,8°C 68,0% -4,4°C 1023,9hPa 1,0°C 0,0km/h (0Bft) 0,0km/h 0° (N) ∑0,0l/m² 2,000klx ∑0,0min
Zeit Temperatur Luftfeuchte Taupunkt Luftdruck Windchill Windböen Windgeschwindigkeit Windrichtung Regen Helligkeit Regenzeit
19:50 -0,2°C 72,3% -4,1°C 1018,1hPa -0,2°C 0,0km/h (0Bft) 0,0km/h 0,0l/m² 0,000klx 0,0min
19:45 -0,4°C 72,8% -4,1°C 1018,2hPa -0,4°C 0,0km/h (0Bft) 0,0km/h 0,0l/m² 0,000klx 0,0min
19:40 -0,1°C 71,4% -4,1°C 1018,4hPa -0,1°C 0,0km/h (0Bft) 0,0km/h 0,0l/m² 0,000klx 0,0min
19:35 -0,0°C 71,0% -4,1°C 1018,5hPa -0,0°C 0,0km/h (0Bft) 0,0km/h 0,0l/m² 0,001klx 0,0min
19:30 -0,2°C 71,8% -4,1°C 1018,6hPa -0,2°C 0,0km/h (0Bft) 0,0km/h 0,0l/m² 0,000klx 0,0min
19:25 -0,0°C 71,1% -4,1°C 1018,8hPa -0,0°C 0,0km/h (0Bft) 0,0km/h 0,0l/m² 0,000klx 0,0min
19:20 -0,1°C 71,5% -4,1°C 1018,9hPa -0,1°C 0,0km/h (0Bft) 0,0km/h 0,0l/m² 0,000klx 0,0min
19:15 -0,0°C 71,4% -4,1°C 1018,9hPa -0,0°C 0,0km/h (0Bft) 0,0km/h 0,0l/m² 0,000klx 0,0min
19:10 -0,1°C 71,9% -4,1°C 1019,1hPa -0,1°C 0,0km/h (0Bft) 0,0km/h 0,0l/m² 0,000klx 0,0min
19:05 -0,1°C 72,3% -4,0°C 1019,2hPa -0,1°C 0,0km/h (0Bft) 0,0km/h 0,0l/m² 0,000klx 0,0min
19:00 -0,1°C 71,9% -4,0°C 1019,3hPa -0,1°C 0,0km/h (0Bft) 0,0km/h 0,0l/m² 0,000klx 0,0min
18:55 -0,2°C 72,3% -4,0°C 1019,4hPa -0,2°C 0,0km/h (0Bft) 0,0km/h 0,0l/m² 0,001klx 0,0min
18:50 -0,2°C 72,9% -4,0°C 1019,6hPa -0,2°C 0,0km/h (0Bft) 0,0km/h 0,0l/m² 0,000klx 0,0min
18:45 -0,1°C 72,1% -4,0°C 1019,7hPa -0,1°C 0,0km/h (0Bft) 0,0km/h 0,0l/m² 0,001klx 0,0min
18:40 -0,2°C 73,0% -3,9°C 1019,7hPa -0,2°C 0,0km/h (0Bft) 0,0km/h 0,0l/m² 0,001klx 0,0min
18:35 -0,1°C 72,4% -3,9°C 1019,8hPa -0,1°C 0,0km/h (0Bft) 0,0km/h 0,0l/m² 0,000klx 0,0min
18:30 -0,1°C 72,8% -3,8°C 1020,0hPa -0,1°C 0,0km/h (0Bft) 0,0km/h 0,0l/m² 0,001klx 0,0min
18:25 0,1°C 71,9% -4,4°C 1020,1hPa 0,1°C 0,0km/h (0Bft) 0,0km/h 0,0l/m² 0,001klx 0,0min
18:20 0,2°C 71,0% -4,5°C 1020,2hPa 0,2°C 0,0km/h (0Bft) 0,0km/h 0,0l/m² 0,000klx 0,0min
18:15 0,2°C 71,1% -4,4°C 1020,2hPa 0,2°C 0,0km/h (0Bft) 0,0km/h 0,0l/m² 0,001klx 0,0min
18:10 0,2°C 70,8% -4,4°C 1020,2hPa 0,2°C 0,0km/h (0Bft) 0,0km/h 0,0l/m² 0,000klx 0,0min
18:05 0,3°C 70,1% -4,5°C 1020,3hPa 0,3°C 0,0km/h (0Bft) 0,0km/h 0,0l/m² 0,001klx 0,0min
18:00 0,3°C 70,2% -4,5°C 1020,3hPa 0,3°C 0,0km/h (0Bft) 0,0km/h 0,0l/m² 0,000klx 0,0min
17:55 0,4°C 69,5% -4,5°C 1020,3hPa 0,4°C 0,0km/h (0Bft) 0,0km/h 0,0l/m² 0,000klx 0,0min
17:50 0,4°C 69,8% -4,5°C 1020,4hPa 0,4°C 0,0km/h (0Bft) 0,0km/h 0,0l/m² 0,000klx 0,0min
17:45 0,5°C 69,3% -4,5°C 1020,4hPa 0,5°C 0,0km/h (0Bft) 0,0km/h 0,0l/m² 0,000klx 0,0min
17:40 0,4°C 69,5% -4,5°C 1020,4hPa 0,4°C 0,0km/h (0Bft) 0,0km/h 0,0l/m² 0,000klx 0,0min
17:35 0,4°C 69,6% -4,5°C 1020,4hPa 0,4°C 0,0km/h (0Bft) 0,0km/h 0,0l/m² 0,000klx 0,0min
17:30 0,4°C 70,2% -4,4°C 1020,5hPa 0,4°C 0,0km/h (0Bft) 0,0km/h 0,0l/m² 0,000klx 0,0min
17:25 0,5°C 69,8% -4,4°C 1020,6hPa 0,5°C 0,0km/h (0Bft) 0,0km/h 0,0l/m² 0,001klx 0,0min
17:20 0,5°C 69,6% -4,4°C 1020,7hPa 0,5°C 0,0km/h (0Bft) 0,0km/h 0,0l/m² 0,001klx 0,0min
17:15 0,5°C 70,1% -4,3°C 1020,8hPa 0,5°C 0,0km/h (0Bft) 0,0km/h 0,0l/m² 0,001klx 0,0min
17:10 0,6°C 69,4% -4,4°C 1020,9hPa 0,6°C 0,0km/h (0Bft) 0,0km/h 0,0l/m² 0,001klx 0,0min
17:05 0,6°C 69,7% -4,3°C 1021,0hPa 0,6°C 0,0km/h (0Bft) 0,0km/h 0,0l/m² 0,003klx 0,0min
17:00 0,7°C 68,7% -4,4°C 1021,0hPa 0,7°C 0,0km/h (0Bft) 0,0km/h 0,0l/m² 0,005klx 0,0min
16:55 0,7°C 69,0% -4,3°C 1021,1hPa 0,7°C 0,0km/h (0Bft) 0,0km/h 0,0l/m² 0,011klx 0,0min
16:50 0,9°C 67,6% -4,5°C 1021,1hPa 0,9°C 0,0km/h (0Bft) 0,0km/h 0,0l/m² 0,022klx 0,0min
16:45 0,9°C 67,7% -4,4°C 1021,2hPa 0,9°C 0,0km/h (0Bft) 0,0km/h 0,0l/m² 0,043klx 0,0min
16:40 0,9°C 67,8% -4,4°C 1021,2hPa 0,9°C 0,0km/h (0Bft) 0,0km/h 0,0l/m² 0,079klx 0,0min
16:35 0,9°C 67,4% -4,5°C 1021,3hPa 0,9°C 0,0km/h (0Bft) 0,0km/h 0,0l/m² 0,131klx 0,0min
16:30 0,9°C 67,6% -4,4°C 1021,4hPa 0,9°C 0,0km/h (0Bft) 0,0km/h 0,0l/m² 0,195klx 0,0min
16:25 0,9°C 67,9% -4,3°C 1021,4hPa 0,9°C 0,0km/h (0Bft) 0,0km/h 0,0l/m² 0,272klx 0,0min
16:20 1,0°C 68,5% -4,2°C 1021,5hPa 1,0°C 0,0km/h (0Bft) 0,0km/h 0,0l/m² 0,352klx 0,0min
16:15 1,0°C 68,2% -4,2°C 1021,7hPa 1,0°C 0,0km/h (0Bft) 0,0km/h 0,0l/m² 0,427klx 0,0min
16:10 1,0°C 68,6% -4,1°C 1021,8hPa 1,0°C 0,0km/h (0Bft) 0,0km/h 0,0l/m² 0,544klx 0,0min
16:05 1,0°C 68,5% -4,1°C 1021,9hPa 1,0°C 0,0km/h (0Bft) 0,0km/h 0,0l/m² 0,691klx 0,0min
16:00 1,1°C 68,7% -4,1°C 1022,0hPa 1,1°C 0,0km/h (0Bft) 0,0km/h 0,0l/m² 0,908klx 0,0min
15:55 1,1°C 68,0% -4,2°C 1022,1hPa 1,1°C 0,0km/h (0Bft) 0,0km/h 0,0l/m² 1,010klx 0,0min
15:50 1,1°C 67,5% -4,3°C 1022,2hPa 1,1°C 0,0km/h (0Bft) 0,0km/h 0,0l/m² 1,321klx 0,0min
15:45 1,1°C 67,3% -4,3°C 1022,3hPa 1,1°C 0,0km/h (0Bft) 0,0km/h 0,0l/m² 1,561klx 0,0min
15:40 1,1°C 67,6% -4,2°C 1022,4hPa 1,1°C 0,0km/h (0Bft) 0,0km/h 0,0l/m² 1,782klx 0,0min
15:35 1,1°C 67,5% -4,3°C 1022,3hPa 1,1°C 0,0km/h (0Bft) 0,0km/h 0,0l/m² 1,995klx 0,0min
15:30 1,1°C 68,1% -4,1°C 1022,5hPa 1,1°C 0,0km/h (0Bft) 0,0km/h 0,0l/m² 2,139klx 0,0min
15:25 1,2°C 68,2% -4,0°C 1022,7hPa 1,2°C 0,0km/h (0Bft) 0,0km/h 0,0l/m² 2,224klx 0,0min
15:20 1,1°C 67,6% -4,2°C 1022,7hPa 1,1°C 0,0km/h (0Bft) 0,0km/h 0,0l/m² 2,253klx 0,0min
15:15 1,2°C 68,0% -4,1°C 1022,7hPa 1,2°C 0,0km/h (0Bft) 0,0km/h 0,0l/m² 2,441klx 0,0min
15:10 1,2°C 67,6% -4,2°C 1022,7hPa 1,2°C 0,0km/h (0Bft) 0,0km/h 0,0l/m² 2,597klx 0,0min
15:05 1,2°C 67,2% -4,2°C 1022,9hPa 1,2°C 0,0km/h (0Bft) 0,0km/h 0,0l/m² 2,989klx 0,0min
15:00 1,1°C 67,1% -4,3°C 1022,9hPa 1,1°C 0,0km/h (0Bft) 0,0km/h 0,0l/m² 2,956klx 0,0min
14:55 1,1°C 67,4% -4,3°C 1022,9hPa 1,1°C 0,0km/h (0Bft) 0,0km/h 0,0l/m² 2,952klx 0,0min
14:50 1,1°C 67,3% -4,2°C 1022,9hPa 1,1°C 0,0km/h (0Bft) 0,0km/h 0,0l/m² 3,090klx 0,0min
14:45 1,2°C 67,5% -4,2°C 1023,1hPa 1,2°C 0,0km/h (0Bft) 0,0km/h 0,0l/m² 3,614klx 0,0min
14:40 1,1°C 67,5% -4,2°C 1023,2hPa 1,1°C 0,0km/h (0Bft) 0,0km/h 0,0l/m² 3,673klx 0,0min
14:35 1,1°C 67,8% -4,2°C 1023,2hPa 1,1°C 0,0km/h (0Bft) 0,0km/h 0,0l/m² 3,368klx 0,0min
14:30 1,2°C 67,4% -4,2°C 1023,3hPa 1,2°C 0,0km/h (0Bft) 0,0km/h 0,0l/m² 3,542klx 0,0min
14:25 1,1°C 67,7% -4,2°C 1023,3hPa 1,1°C 0,0km/h (0Bft) 0,0km/h 0,0l/m² 3,527klx 0,0min
14:20 1,1°C 67,9% -4,1°C 1023,3hPa 1,1°C 0,0km/h (0Bft) 0,0km/h 0,0l/m² 3,507klx 0,0min
14:15 1,2°C 68,3% -4,0°C 1023,3hPa 1,2°C 0,0km/h (0Bft) 0,0km/h 0,0l/m² 3,929klx 0,0min
14:10 1,2°C 68,9% -3,9°C 1023,3hPa 1,2°C 0,0km/h (0Bft) 0,0km/h 0,0l/m² 3,854klx 0,0min
14:05 1,3°C 69,9% -3,6°C 1023,3hPa 1,3°C 0,0km/h (0Bft) 0,0km/h 0,0l/m² 3,706klx 0,0min
14:00 1,2°C 69,6% -3,7°C 1023,3hPa 1,2°C 0,0km/h (0Bft) 0,0km/h 0,0l/m² 3,925klx 0,0min
13:55 1,2°C 69,5% -3,8°C 1023,3hPa 1,2°C 0,0km/h (0Bft) 0,0km/h 0,0l/m² 4,071klx 0,0min
13:50 1,2°C 69,2% -3,8°C 1023,3hPa 1,2°C 0,0km/h (0Bft) 0,0km/h 0,0l/m² 3,830klx 0,0min
13:45 1,2°C 69,0% -3,9°C 1023,4hPa 1,2°C 0,0km/h (0Bft) 0,0km/h 0,0l/m² 3,882klx 0,0min
13:40 1,1°C 68,4% -4,1°C 1023,4hPa 1,1°C 0,0km/h (0Bft) 0,0km/h 0,0l/m² 4,255klx 0,0min
13:35 1,1°C 68,7% -4,0°C 1023,4hPa 1,1°C 0,0km/h (0Bft) 0,0km/h 0,0l/m² 4,106klx 0,0min
13:30 1,1°C 68,7% -4,0°C 1023,4hPa 1,1°C 0,0km/h (0Bft) 0,0km/h 0,0l/m² 4,198klx 0,0min
13:25 1,1°C 68,3% -4,1°C 1023,5hPa 1,1°C 0,0km/h (0Bft) 0,0km/h 0,0l/m² 4,412klx 0,0min
13:20 1,1°C 68,5% -4,1°C 1023,5hPa 1,1°C 0,0km/h (0Bft) 0,0km/h 0,0l/m² 4,502klx 0,0min
13:15 1,1°C 68,9% -4,0°C 1023,7hPa 1,1°C 0,0km/h (0Bft) 0,0km/h 0,0l/m² 4,534klx 0,0min
13:10 1,1°C 68,9% -4,0°C 1023,8hPa 1,1°C 0,0km/h (0Bft) 0,0km/h 0,0l/m² 4,174klx 0,0min
13:05 1,1°C 69,0% -4,0°C 1023,8hPa 1,1°C 0,0km/h (0Bft) 0,0km/h 0,0l/m² 4,059klx 0,0min
13:00 1,1°C 69,0% -4,0°C 1023,9hPa 1,1°C 0,0km/h (0Bft) 0,0km/h 0,0l/m² 3,865klx 0,0min
12:55 1,1°C 69,0% -4,0°C 1024,0hPa 1,1°C 0,0km/h (0Bft) 0,0km/h 0,0l/m² 3,629klx 0,0min
12:50 1,1°C 69,3% -3,9°C 1024,1hPa 1,1°C 0,0km/h (0Bft) 0,0km/h 0,0l/m² 3,356klx 0,0min
12:45 1,1°C 69,8% -3,9°C 1024,2hPa 1,1°C 0,0km/h (0Bft) 0,0km/h 0,0l/m² 3,376klx 0,0min
12:40 1,0°C 69,2% -4,0°C 1024,4hPa 1,0°C 0,0km/h (0Bft) 0,0km/h 0,0l/m² 3,210klx 0,0min
12:35 1,0°C 69,3% -4,0°C 1024,5hPa 1,0°C 0,0km/h (0Bft) 0,0km/h 0,0l/m² 3,070klx 0,0min
12:30 1,0°C 69,1% -4,0°C 1024,6hPa 1,0°C 0,0km/h (0Bft) 0,0km/h 0,0l/m² 2,901klx 0,0min
12:25 1,0°C 69,3% -4,0°C 1024,7hPa 1,0°C 0,0km/h (0Bft) 0,0km/h 0,0l/m² 2,817klx 0,0min
12:20 1,0°C 69,7% -3,9°C 1024,8hPa 1,0°C 0,0km/h (0Bft) 0,0km/h 0,0l/m² 2,889klx 0,0min
12:15 1,0°C 69,0% -4,0°C 1024,8hPa 1,0°C 0,0km/h (0Bft) 0,0km/h 0,0l/m² 2,891klx 0,0min
12:10 1,0°C 69,7% -3,9°C 1024,8hPa 1,0°C 0,0km/h (0Bft) 0,0km/h 0,0l/m² 2,870klx 0,0min
12:05 1,0°C 69,3% -4,0°C 1024,8hPa 1,0°C 0,0km/h (0Bft) 0,0km/h 0,0l/m² 2,978klx 0,0min
12:00 1,0°C 69,5% -3,9°C 1024,8hPa 1,0°C 0,0km/h (0Bft) 0,0km/h 0,0l/m² 3,169klx 0,0min
11:55 1,0°C 69,5% -3,9°C 1024,8hPa 1,0°C 0,0km/h (0Bft) 0,0km/h 0,0l/m² 3,161klx 0,0min
11:50 1,0°C 69,2% -4,0°C 1024,8hPa 1,0°C 0,0km/h (0Bft) 0,0km/h 0,0l/m² 3,147klx 0,0min
11:45 1,0°C 69,6% -3,9°C 1024,9hPa 1,0°C 0,0km/h (0Bft) 0,0km/h 0,0l/m² 3,108klx 0,0min
11:40 1,0°C 69,6% -3,9°C 1025,0hPa 1,0°C 0,0km/h (0Bft) 0,0km/h 0,0l/m² 3,120klx 0,0min
11:35 1,0°C 68,9% -4,1°C 1025,1hPa 1,0°C 0,0km/h (0Bft) 0,0km/h 0,0l/m² 2,973klx 0,0min
11:30 1,0°C 69,4% -4,0°C 1025,2hPa 1,0°C 0,0km/h (0Bft) 0,0km/h 0,0l/m² 2,944klx 0,0min
11:25 1,0°C 68,9% -4,1°C 1025,3hPa 1,0°C 0,0km/h (0Bft) 0,0km/h 0,0l/m² 3,000klx 0,0min
11:20 0,9°C 69,3% -4,1°C 1025,4hPa 0,9°C 0,0km/h (0Bft) 0,0km/h 0,0l/m² 2,871klx 0,0min
11:15 0,9°C 69,4% -4,1°C 1025,4hPa 0,9°C 0,0km/h (0Bft) 0,0km/h 0,0l/m² 2,752klx 0,0min
11:10 0,9°C 69,3% -4,1°C 1025,5hPa 0,9°C 0,0km/h (0Bft) 0,0km/h 0,0l/m² 2,554klx 0,0min
11:05 0,9°C 69,3% -4,1°C 1025,5hPa 0,9°C 0,0km/h (0Bft) 0,0km/h 0,0l/m² 2,474klx 0,0min
11:00 0,9°C 68,9% -4,2°C 1025,6hPa 0,9°C 0,0km/h (0Bft) 0,0km/h 0,0l/m² 2,437klx 0,0min
10:55 0,9°C 69,1% -4,1°C 1025,7hPa 0,9°C 0,0km/h (0Bft) 0,0km/h 0,0l/m² 2,281klx 0,0min
10:50 0,9°C 68,8% -4,2°C 1025,7hPa 0,9°C 0,0km/h (0Bft) 0,0km/h 0,0l/m² 2,163klx 0,0min
10:45 0,9°C 69,2% -4,2°C 1025,8hPa 0,9°C 0,0km/h (0Bft) 0,0km/h 0,0l/m² 2,159klx 0,0min
10:40 0,9°C 69,0% -4,2°C 1025,7hPa 0,9°C 0,0km/h (0Bft) 0,0km/h 0,0l/m² 2,149klx 0,0min
10:35 0,8°C 68,9% -4,2°C 1025,8hPa 0,8°C 0,0km/h (0Bft) 0,0km/h 0,0l/m² 1,941klx 0,0min
10:30 0,8°C 68,9% -4,2°C 1025,7hPa 0,8°C 0,0km/h (0Bft) 0,0km/h 0,0l/m² 1,869klx 0,0min
10:25 0,8°C 68,0% -4,4°C 1025,7hPa 0,8°C 0,0km/h (0Bft) 0,0km/h 0,0l/m² 1,873klx 0,0min
10:20 0,8°C 68,8% -4,3°C 1025,7hPa 0,8°C 0,0km/h (0Bft) 0,0km/h 0,0l/m² 1,912klx 0,0min
10:15 0,8°C 68,6% -4,3°C 1025,6hPa 0,8°C 0,0km/h (0Bft) 0,0km/h 0,0l/m² 1,873klx 0,0min
10:10 0,8°C 68,3% -4,4°C 1025,6hPa 0,8°C 0,0km/h (0Bft) 0,0km/h 0,0l/m² 1,889klx 0,0min
10:05 0,8°C 68,3% -4,4°C 1025,6hPa 0,8°C 0,0km/h (0Bft) 0,0km/h 0,0l/m² 1,742klx 0,0min
10:00 0,8°C 67,9% -4,5°C 1025,5hPa 0,8°C 0,0km/h (0Bft) 0,0km/h 0,0l/m² 1,593klx 0,0min
09:55 0,8°C 68,3% -4,4°C 1025,5hPa 0,8°C 0,0km/h (0Bft) 0,0km/h 0,0l/m² 1,507klx 0,0min
09:50 0,8°C 68,0% -4,5°C 1025,5hPa 0,8°C 0,0km/h (0Bft) 0,0km/h 0,0l/m² 1,378klx 0,0min
09:45 0,8°C 68,4% -4,4°C 1025,5hPa 0,8°C 0,0km/h (0Bft) 0,0km/h 0,0l/m² 1,288klx 0,0min
09:40 0,8°C 68,0% -4,4°C 1025,5hPa 0,8°C 0,0km/h (0Bft) 0,0km/h 0,0l/m² 1,200klx 0,0min
09:35 0,8°C 67,6% -4,5°C 1025,5hPa 0,8°C 0,0km/h (0Bft) 0,0km/h 0,0l/m² 1,122klx 0,0min
09:30 0,8°C 67,8% -4,5°C 1025,5hPa 0,8°C 0,0km/h (0Bft) 0,0km/h 0,0l/m² 1,021klx 0,0min
09:25 0,8°C 67,7% -4,5°C 1025,4hPa 0,8°C 0,0km/h (0Bft) 0,0km/h 0,0l/m² 0,910klx 0,0min
09:20 0,8°C 68,4% -4,3°C 1025,4hPa 0,8°C 0,0km/h (0Bft) 0,0km/h 0,0l/m² 0,830klx 0,0min
09:15 0,8°C 68,1% -4,4°C 1025,3hPa 0,8°C 0,0km/h (0Bft) 0,0km/h 0,0l/m² 0,727klx 0,0min
09:10 0,8°C 67,5% -4,5°C 1025,3hPa 0,8°C 0,0km/h (0Bft) 0,0km/h 0,0l/m² 0,628klx 0,0min
09:05 0,9°C 67,8% -4,4°C 1025,3hPa 0,9°C 0,0km/h (0Bft) 0,0km/h 0,0l/m² 0,517klx 0,0min
09:00 0,9°C 67,2% -4,5°C 1025,3hPa 0,9°C 0,0km/h (0Bft) 0,0km/h 0,0l/m² 0,430klx 0,0min
08:55 0,9°C 68,2% -4,4°C 1025,3hPa 0,9°C 0,0km/h (0Bft) 0,0km/h 0,0l/m² 0,358klx 0,0min
08:50 0,9°C 67,4% -4,5°C 1025,3hPa 0,9°C 0,0km/h (0Bft) 0,0km/h 0,0l/m² 0,280klx 0,0min
08:45 0,9°C 67,7% -4,5°C 1025,3hPa 0,9°C 0,0km/h (0Bft) 0,0km/h 0,0l/m² 0,226klx 0,0min
08:40 0,9°C 67,8% -4,4°C 1025,2hPa 0,9°C 0,0km/h (0Bft) 0,0km/h 0,0l/m² 0,178klx 0,0min
08:35 0,9°C 66,4% -4,7°C 1025,2hPa 0,9°C 0,0km/h (0Bft) 0,0km/h 0,0l/m² 0,133klx 0,0min
08:30 0,9°C 67,2% -4,5°C 1025,1hPa 0,9°C 0,0km/h (0Bft) 0,0km/h 0,0l/m² 0,095klx 0,0min
08:25 0,9°C 66,0% -4,8°C 1025,1hPa 0,9°C 0,0km/h (0Bft) 0,0km/h 0,0l/m² 0,062klx 0,0min
08:20 0,9°C 66,1% -4,7°C 1025,2hPa 0,9°C 0,0km/h (0Bft) 0,0km/h 0,0l/m² 0,039klx 0,0min
08:15 0,8°C 66,5% -4,7°C 1025,1hPa 0,8°C 0,0km/h (0Bft) 0,0km/h 0,0l/m² 0,024klx 0,0min
08:10 0,8°C 66,4% -4,7°C 1025,1hPa 0,8°C 0,0km/h (0Bft) 0,0km/h 0,0l/m² 0,013klx 0,0min
08:05 0,8°C 66,9% -4,6°C 1025,2hPa 0,8°C 0,0km/h (0Bft) 0,0km/h 0,0l/m² 0,006klx 0,0min
08:00 0,9°C 66,3% -4,7°C 1025,2hPa 0,9°C 0,0km/h (0Bft) 0,0km/h 0,0l/m² 0,003klx 0,0min
07:55 0,9°C 66,0% -4,8°C 1025,2hPa 0,9°C 0,0km/h (0Bft) 0,0km/h 0,0l/m² 0,002klx 0,0min
07:50 0,8°C 65,7% -4,9°C 1025,3hPa 0,8°C 0,0km/h (0Bft) 0,0km/h 0,0l/m² 0,001klx 0,0min
07:45 0,8°C 66,5% -4,7°C 1025,3hPa 0,8°C 0,0km/h (0Bft) 0,0km/h 0,0l/m² 0,001klx 0,0min
07:40 0,8°C 66,4% -4,8°C 1025,3hPa 0,8°C 0,0km/h (0Bft) 0,0km/h 0,0l/m² 0,001klx 0,0min
07:35 0,7°C 66,8% -4,8°C 1025,3hPa 0,7°C 0,0km/h (0Bft) 0,0km/h 0,0l/m² 0,001klx 0,0min
07:30 0,7°C 66,4% -4,8°C 1025,2hPa 0,7°C 0,0km/h (0Bft) 0,0km/h 0,0l/m² 0,001klx 0,0min
07:25 0,8°C 66,1% -4,9°C 1025,2hPa 0,8°C 0,0km/h (0Bft) 0,0km/h 0,0l/m² 0,000klx 0,0min
07:20 0,8°C 66,4% -4,8°C 1025,2hPa 0,8°C 0,0km/h (0Bft) 0,0km/h 0,0l/m² 0,000klx 0,0min
07:15 0,8°C 65,8% -4,9°C 1025,2hPa 0,8°C 0,0km/h (0Bft) 0,0km/h 0,0l/m² 0,000klx 0,0min
07:10 0,8°C 65,9% -4,9°C 1025,2hPa 0,8°C 0,0km/h (0Bft) 0,0km/h 0,0l/m² 0,000klx 0,0min
07:05 0,8°C 66,1% -4,9°C 1025,2hPa 0,8°C 0,0km/h (0Bft) 0,0km/h 0,0l/m² 0,000klx 0,0min
07:00 0,8°C 65,7% -4,9°C 1025,2hPa 0,8°C 0,0km/h (0Bft) 0,0km/h 0,0l/m² 0,000klx 0,0min
06:55 0,8°C 65,0% -5,0°C 1025,2hPa 0,8°C 0,0km/h (0Bft) 0,0km/h 0,0l/m² 0,001klx 0,0min
06:50 0,8°C 65,3% -5,0°C 1025,2hPa 0,8°C 0,0km/h (0Bft) 0,0km/h 0,0l/m² 0,000klx 0,0min
06:45 0,8°C 65,1% -5,0°C 1025,2hPa 0,8°C 0,0km/h (0Bft) 0,0km/h 0,0l/m² 0,001klx 0,0min
06:40 0,8°C 65,4% -5,0°C 1025,2hPa 0,8°C 0,0km/h (0Bft) 0,0km/h 0,0l/m² 0,000klx 0,0min
06:35 0,7°C 66,6% -4,8°C 1025,2hPa 0,7°C 0,0km/h (0Bft) 0,0km/h 0,0l/m² 0,000klx 0,0min
06:30 0,7°C 65,8% -4,9°C 1025,2hPa 0,7°C 0,0km/h (0Bft) 0,0km/h 0,0l/m² 0,001klx 0,0min
06:25 0,7°C 65,7% -5,0°C 1025,2hPa 0,7°C 0,0km/h (0Bft) 0,0km/h 0,0l/m² 0,000klx 0,0min
06:20 0,8°C 65,4% -5,0°C 1025,2hPa 0,8°C 0,0km/h (0Bft) 0,0km/h 0,0l/m² 0,000klx 0,0min
06:15 0,8°C 64,7% -5,1°C 1025,2hPa 0,8°C 0,0km/h (0Bft) 0,0km/h 0,0l/m² 0,000klx 0,0min
06:10 0,8°C 64,7% -5,1°C 1025,2hPa 0,8°C 0,0km/h (0Bft) 0,0km/h 0,0l/m² 0,001klx 0,0min
06:05 0,8°C 65,2% -5,0°C 1025,1hPa 0,8°C 0,0km/h (0Bft) 0,0km/h 0,0l/m² 0,000klx 0,0min
06:00 0,8°C 66,0% -4,9°C 1025,2hPa 0,8°C 0,0km/h (0Bft) 0,0km/h 0,0l/m² 0,000klx 0,0min
05:55 0,8°C 66,5% -4,8°C 1025,2hPa 0,8°C 0,0km/h (0Bft) 0,0km/h 0,0l/m² 0,001klx 0,0min
05:50 0,8°C 67,0% -4,7°C 1025,2hPa 0,8°C 0,0km/h (0Bft) 0,0km/h 0,0l/m² 0,000klx 0,0min
05:45 0,8°C 66,6% -4,7°C 1025,2hPa 0,8°C 0,0km/h (0Bft) 0,0km/h 0,0l/m² 0,000klx 0,0min
05:40 0,8°C 66,7% -4,7°C 1025,2hPa 0,8°C 0,0km/h (0Bft) 0,0km/h 0,0l/m² 0,000klx 0,0min
05:35 0,8°C 67,1% -4,7°C 1025,2hPa 0,8°C 0,0km/h (0Bft) 0,0km/h 0,0l/m² 0,000klx 0,0min
05:30 0,8°C 65,8% -4,9°C 1025,1hPa 0,8°C 0,0km/h (0Bft) 0,0km/h 0,0l/m² 0,000klx 0,0min
05:25 0,8°C 65,1% -5,0°C 1025,1hPa 0,8°C 0,0km/h (0Bft) 0,0km/h 0,0l/m² 0,000klx 0,0min
05:20 0,8°C 65,9% -4,9°C 1025,2hPa 0,8°C 0,0km/h (0Bft) 0,0km/h 0,0l/m² 0,000klx 0,0min
05:15 0,8°C 64,9% -5,1°C 1025,2hPa 0,8°C 0,0km/h (0Bft) 0,0km/h 0,0l/m² 0,000klx 0,0min
05:10 0,8°C 66,3% -4,8°C 1025,2hPa 0,8°C 0,0km/h (0Bft) 0,0km/h 0,0l/m² 0,001klx 0,0min
05:05 0,8°C 65,1% -5,0°C 1025,3hPa 0,8°C 0,0km/h (0Bft) 0,0km/h 0,0l/m² 0,000klx 0,0min
05:00 0,8°C 66,0% -4,8°C 1025,3hPa 0,8°C 0,0km/h (0Bft) 0,0km/h 0,0l/m² 0,001klx 0,0min
04:55 0,8°C 65,3% -5,0°C 1025,3hPa 0,8°C 0,0km/h (0Bft) 0,0km/h 0,0l/m² 0,000klx 0,0min
04:50 0,9°C 65,2% -4,9°C 1025,3hPa 0,9°C 0,0km/h (0Bft) 0,0km/h 0,0l/m² 0,000klx 0,0min
04:45 0,9°C 64,7% -5,0°C 1025,4hPa 0,9°C 0,0km/h (0Bft) 0,0km/h 0,0l/m² 0,000klx 0,0min
04:40 0,8°C 65,4% -4,9°C 1025,3hPa 0,8°C 0,0km/h (0Bft) 0,0km/h 0,0l/m² 0,000klx 0,0min
04:35 0,8°C 66,5% -4,7°C 1025,4hPa 0,8°C 0,0km/h (0Bft) 0,0km/h 0,0l/m² 0,000klx 0,0min
04:30 0,9°C 65,2% -4,9°C 1025,5hPa 0,9°C 0,0km/h (0Bft) 0,0km/h 0,0l/m² 0,000klx 0,0min
04:25 0,9°C 65,1% -4,9°C 1025,5hPa 0,9°C 0,0km/h (0Bft) 0,0km/h 0,0l/m² 0,001klx 0,0min
04:20 0,9°C 66,2% -4,8°C 1025,6hPa 0,9°C 0,0km/h (0Bft) 0,0km/h 0,0l/m² 0,000klx 0,0min
04:15 0,9°C 66,4% -4,7°C 1025,6hPa 0,9°C 0,0km/h (0Bft) 0,0km/h 0,0l/m² 0,001klx 0,0min
04:10 0,9°C 66,4% -4,7°C 1025,6hPa 0,9°C 0,0km/h (0Bft) 0,0km/h 0,0l/m² 0,000klx 0,0min
04:05 0,9°C 65,7% -4,8°C 1025,7hPa 0,9°C 0,0km/h (0Bft) 0,0km/h 0,0l/m² 0,000klx 0,0min
04:00 0,8°C 68,1% -4,4°C 1025,7hPa 0,8°C 0,0km/h (0Bft) 0,0km/h 0,0l/m² 0,000klx 0,0min
03:55 0,9°C 66,5% -4,6°C 1025,7hPa 0,9°C 0,0km/h (0Bft) 0,0km/h 0,0l/m² 0,001klx 0,0min
03:50 1,0°C 66,1% -4,7°C 1025,8hPa 1,0°C 0,0km/h (0Bft) 0,0km/h 0,0l/m² 0,000klx 0,0min
03:45 0,9°C 66,2% -4,7°C 1025,8hPa 0,9°C 0,0km/h (0Bft) 0,0km/h 0,0l/m² 0,001klx 0,0min
03:40 1,0°C 66,0% -4,7°C 1025,8hPa 1,0°C 0,0km/h (0Bft) 0,0km/h 0,0l/m² 0,000klx 0,0min
03:35 1,0°C 64,5% -4,9°C 1025,8hPa 1,0°C 0,0km/h (0Bft) 0,0km/h 0,0l/m² 0,000klx 0,0min
03:30 1,0°C 64,2% -5,0°C 1025,8hPa 1,0°C 0,0km/h (0Bft) 0,0km/h 0,0l/m² 0,000klx 0,0min
03:25 1,0°C 65,4% -4,8°C 1025,8hPa 1,0°C 0,0km/h (0Bft) 0,0km/h 0,0l/m² 0,000klx 0,0min
03:20 1,0°C 65,8% -4,7°C 1025,8hPa 1,0°C 0,0km/h (0Bft) 0,0km/h 0,0l/m² 0,001klx 0,0min
03:15 0,9°C 66,0% -4,7°C 1025,8hPa 0,9°C 0,0km/h (0Bft) 0,0km/h 0,0l/m² 0,000klx 0,0min
03:10 0,9°C 67,1% -4,5°C 1025,8hPa 0,9°C 0,0km/h (0Bft) 0,0km/h 0,0l/m² 0,001klx 0,0min
03:05 1,0°C 66,3% -4,6°C 1025,8hPa 1,0°C 0,0km/h (0Bft) 0,0km/h 0,0l/m² 0,001klx 0,0min
03:00 1,0°C 65,0% -4,8°C 1025,8hPa 1,0°C 0,0km/h (0Bft) 0,0km/h 0,0l/m² 0,000klx 0,0min
02:55 1,0°C 65,4% -4,8°C 1025,8hPa 1,0°C 0,0km/h (0Bft) 0,0km/h 0,0l/m² 0,000klx 0,0min
02:50 1,1°C 64,6% -4,9°C 1025,8hPa 1,1°C 0,0km/h (0Bft) 0,0km/h 0,0l/m² 0,000klx 0,0min
02:45 1,1°C 64,5% -4,9°C 1025,7hPa 1,1°C 0,0km/h (0Bft) 0,0km/h 0,0l/m² 0,000klx 0,0min
02:40 1,0°C 66,2% -4,6°C 1025,6hPa 1,0°C 0,0km/h (0Bft) 0,0km/h 0,0l/m² 0,000klx 0,0min
02:35 1,0°C 66,4% -4,6°C 1025,5hPa 1,0°C 0,0km/h (0Bft) 0,0km/h 0,0l/m² 0,000klx 0,0min
02:30 1,0°C 65,4% -4,7°C 1025,4hPa 1,0°C 0,0km/h (0Bft) 0,0km/h 0,0l/m² 0,000klx 0,0min
02:25 1,1°C 64,9% -4,8°C 1025,4hPa 1,1°C 0,0km/h (0Bft) 0,0km/h 0,0l/m² 0,000klx 0,0min
02:20 1,0°C 65,6% -4,7°C 1025,3hPa 1,0°C 0,0km/h (0Bft) 0,0km/h 0,0l/m² 0,000klx 0,0min
02:15 1,1°C 64,6% -4,9°C 1025,4hPa 1,1°C 0,0km/h (0Bft) 0,0km/h 0,0l/m² 0,000klx 0,0min
02:10 1,1°C 64,9% -4,8°C 1025,3hPa 1,1°C 0,0km/h (0Bft) 0,0km/h 0,0l/m² 0,000klx 0,0min
02:05 1,0°C 65,1% -4,8°C 1025,2hPa 1,0°C 0,0km/h (0Bft) 0,0km/h 0,0l/m² 0,000klx 0,0min
02:00 1,1°C 63,9% -5,0°C 1025,2hPa 1,1°C 0,0km/h (0Bft) 0,0km/h 0,0l/m² 0,000klx 0,0min
01:55 1,1°C 64,0% -4,9°C 1025,2hPa 1,1°C 0,0km/h (0Bft) 0,0km/h 0,0l/m² 0,000klx 0,0min
01:50 1,1°C 63,6% -5,0°C 1025,2hPa 1,1°C 0,0km/h (0Bft) 0,0km/h 0,0l/m² 0,000klx 0,0min
01:45 1,1°C 64,2% -4,9°C 1025,2hPa 1,1°C 0,0km/h (0Bft) 0,0km/h 0,0l/m² 0,000klx 0,0min
01:40 1,1°C 65,0% -4,7°C 1025,1hPa 1,1°C 0,0km/h (0Bft) 0,0km/h 0,0l/m² 0,000klx 0,0min
01:35 1,1°C 64,0% -4,9°C 1025,1hPa 1,1°C 0,0km/h (0Bft) 0,0km/h 0,0l/m² 0,000klx 0,0min
01:30 1,1°C 63,5% -5,0°C 1025,1hPa 1,1°C 0,0km/h (0Bft) 0,0km/h 0,0l/m² 0,000klx 0,0min
01:25 1,1°C 64,4% -4,8°C 1025,0hPa 1,1°C 0,0km/h (0Bft) 0,0km/h 0,0l/m² 0,001klx 0,0min
01:20 1,1°C 64,7% -4,8°C 1025,0hPa 1,1°C 0,0km/h (0Bft) 0,0km/h 0,0l/m² 0,000klx 0,0min
01:15 1,1°C 66,1% -4,5°C 1025,0hPa 1,1°C 0,0km/h (0Bft) 0,0km/h 0,0l/m² 0,001klx 0,0min
01:10 1,1°C 65,4% -4,7°C 1025,0hPa 1,1°C 0,0km/h (0Bft) 0,0km/h 0,0l/m² 0,000klx 0,0min
01:05 1,1°C 65,6% -4,6°C 1025,0hPa 1,1°C 0,0km/h (0Bft) 0,0km/h 0,0l/m² 0,001klx 0,0min
01:00 1,1°C 65,9% -4,6°C 1025,0hPa 1,1°C 0,0km/h (0Bft) 0,0km/h 0,0l/m² 0,001klx 0,0min
00:55 1,1°C 66,9% -4,4°C 1025,0hPa 1,1°C 0,0km/h (0Bft) 0,0km/h 0,0l/m² 0,000klx 0,0min
00:50 1,1°C 66,4% -4,4°C 1024,9hPa 1,1°C 0,0km/h (0Bft) 0,0km/h 0,0l/m² 0,000klx 0,0min
00:45 1,1°C 66,0% -4,5°C 1024,9hPa 1,1°C 0,0km/h (0Bft) 0,0km/h 0,0l/m² 0,001klx 0,0min
00:40 1,1°C 65,9% -4,5°C 1024,9hPa 1,1°C 0,0km/h (0Bft) 0,0km/h 0,0l/m² 0,000klx 0,0min
00:35 1,1°C 66,8% -4,4°C 1024,9hPa 1,1°C 0,0km/h (0Bft) 0,0km/h 0,0l/m² 0,000klx 0,0min
00:30 1,2°C 65,3% -4,6°C 1024,9hPa 1,2°C 0,0km/h (0Bft) 0,0km/h 0,0l/m² 0,000klx 0,0min
00:25 1,1°C 66,7% -4,4°C 1024,8hPa 1,1°C 0,0km/h (0Bft) 0,0km/h 0,0l/m² 0,000klx 0,0min
00:20 1,1°C 66,7% -4,4°C 1024,7hPa 1,1°C 0,0km/h (0Bft) 0,0km/h 0,0l/m² 0,000klx 0,0min
00:15 1,1°C 67,8% -4,2°C 1024,7hPa 1,1°C 0,0km/h (0Bft) 0,0km/h 0,0l/m² 0,000klx 0,0min
00:10 1,1°C 66,3% -4,4°C 1024,7hPa 1,1°C 0,0km/h (0Bft) 0,0km/h 0,0l/m² 0,000klx 0,0min
00:05 1,2°C 66,2% -4,4°C 1024,6hPa 1,2°C 0,0km/h (0Bft) 0,0km/h 0,0l/m² 0,000klx 0,0min
00:00 1,2°C 66,5% -4,4°C 1024,6hPa 1,2°C 0,0km/h (0Bft) 0,0km/h 0,0l/m² 0,000klx 0,0min

Aktuelle Wetterdaten

15.12.2018 19:50 Uhr